Rothesay, United Kingdom
Current Conditions -  °F | °C
As of 2:20 AM on Thursday 27 Nov 2014 (Local Time) from EGPF Reporting Station
Drizzle Drizzle  
Wind Chill: 40°   Ceiling: 500
Heat Index: 43°   Visibility: 2mi
Dew Point: 43°   Wind: 5mph
Humidity: 100%   Direction: 60°ENE
Pressure: 29.71"   Gusts: NA
Location:  55.84°N, 5.06°W
Report Text: EGPF 270220Z AUTO 06004KT 3200 -DZ OVC005 06/06 Q1006 RERA REDZ
Loading
Personal Weather Stations






























Interactive Weather Map New forecast layout! Learn more

10-Day Weather Forecast

Advertisements
Track Severe Weather on mobile